Terminal Aerodrome Forecast
Issued by NWS

Home | Current Version | Previous Version | Text Only | Print | Product List | Glossary On
Versions: 1 2 3 4 5 6 7 8 9 10 11 12 13 14 15 16 17 18 19 20 21 22 23 24 25 26 27 28 29 30 31 32 33 34 35 36 37 38 39 40 41 42 43 44 45
849
FTUS44 KLIX 012034 AAA
TAFHUM
TAF AMD
KHUM 012034Z 0121/0218 04010KT 3SM -RA BKN008
     FM020000 15010KT P6SM BKN020
     FM020200 15007KT P6SM OVC015
     FM020900 14003KT 3SM BR BKN008
     FM021400 14003KT P6SM BKN015=

USA.gov is the U.S. government's official web portal to all federal, state and local government web resources and services.